»·PEaware :: N062SB L52-L88

N062SB :: L52-L88

FLIGHT INFORMATION

Flight Status: Arrived
Operator: Privately registered:
United States
More flights under this callsign
Pilot: Majd A. (32168)
Aircraft: Diamond DA-62
(DA62)
More flights by this aircraft type
Origin: L52 Oceano Co
United States
Destination: L88 New Cuyama
United States
More flights between these airports :: More routes between these airports
Route: FLW
File this flight plan on PilotEdge
Remarks: RMK / SIMBRIEF
Altitude:
(Current/Filed)
7,500ft
Speed:
(Current/Filed)
171kts
Departed: 24-Sep-21 02:08 PM
Arrived: 24-Sep-21 02:35 PM
Distance/Time
Traveled:
47nm/0:27
Distance/Time
To Go:
Arrived

Flight Plot

Page will automatically refresh every two minutes.


Map Options




Map Legend


Flown Route
Filed Route
Departure Airport
Arrival Airport
Navaid (VOR, NDB)
Fix

Horizontal Profiles

Position Reports

Time Latitude Longitude Heading Altitude Ground
Speed
24-Sep-21 13:48 35.102611 -120.623156 33 19ft 0kts
24-Sep-21 13:49 35.102611 -120.623156 33 19ft 0kts
24-Sep-21 13:50 35.102611 -120.623156 33 19ft 0kts
24-Sep-21 13:51 35.102611 -120.623156 33 19ft 0kts
24-Sep-21 13:52 35.102611 -120.623156 33 19ft 0kts
24-Sep-21 13:53 35.102611 -120.623156 33 19ft 0kts
24-Sep-21 13:54 35.102611 -120.623156 33 19ft 0kts
24-Sep-21 13:55 35.102611 -120.623156 33 19ft 0kts
24-Sep-21 13:56 35.102611 -120.623156 33 19ft 0kts
24-Sep-21 13:57 35.102611 -120.623156 33 19ft 0kts
24-Sep-21 13:58 35.102611 -120.623156 33 19ft 0kts
24-Sep-21 13:59 35.102611 -120.623156 33 19ft 0kts
24-Sep-21 14:00 35.102611 -120.623156 33 19ft 0kts
24-Sep-21 14:01 35.102611 -120.623156 33 19ft 0kts
24-Sep-21 14:02 35.102611 -120.623156 33 19ft 0kts
24-Sep-21 14:03 35.100465 -120.620316 124 16ft 19kts
24-Sep-21 14:04 35.099712 -120.619400 40 16ft 0kts
24-Sep-21 14:05 35.099712 -120.619400 40 16ft 0kts
24-Sep-21 14:06 35.099927 -120.619407 281 15ft 10kts
24-Sep-21 14:07 35.107735 -120.642576 256 823ft 113kts
24-Sep-21 14:08 35.084977 -120.639751 108 2498ft 122kts
24-Sep-21 14:09 35.084152 -120.628486 82 3005ft 117kts
24-Sep-21 14:10 35.101733 -120.600068 31 4519ft 121kts
24-Sep-21 14:11 35.103539 -120.565893 92 6270ft 103kts
24-Sep-21 14:12 35.102880 -120.535575 92 7573ft 107kts
24-Sep-21 14:13 35.102173 -120.485964 91 7748ft 172kts
24-Sep-21 14:14 35.101310 -120.425877 91 7751ft 175kts
24-Sep-21 14:15 35.100459 -120.366853 91 7723ft 171kts
24-Sep-21 14:16 35.099645 -120.309340 91 7717ft 168kts
24-Sep-21 14:17 35.098832 -120.252256 91 7725ft 168kts
24-Sep-21 14:18 35.097981 -120.194904 91 7707ft 168kts
24-Sep-21 14:19 35.097220 -120.139767 91 7725ft 169kts
24-Sep-21 14:20 35.096374 -120.080098 91 7713ft 169kts
24-Sep-21 14:21 35.095522 -120.022554 91 7725ft 169kts
24-Sep-21 14:22 35.094755 -119.967603 91 7718ft 169kts
24-Sep-21 14:23 35.093899 -119.907432 90 7497ft 171kts
24-Sep-21 14:24 35.077138 -119.859943 127 7036ft 159kts
24-Sep-21 14:25 35.047759 -119.816723 128 6043ft 168kts
24-Sep-21 14:26 35.017888 -119.772992 134 5045ft 168kts
24-Sep-21 14:27 34.978151 -119.743742 153 4034ft 164kts
24-Sep-21 14:28 34.939329 -119.728787 169 3741ft 133kts
24-Sep-21 14:29 34.906221 -119.714166 102 3705ft 132kts
24-Sep-21 14:30 34.916105 -119.676567 114 3522ft 133kts
24-Sep-21 14:31 34.906924 -119.636806 52 3277ft 117kts
24-Sep-21 14:32 34.927159 -119.647972 285 3180ft 103kts
24-Sep-21 14:33 34.936707 -119.677607 298 2338ft 94kts
24-Sep-21 14:35 34.943087 -119.691046 15 2149ft 0kts
24-Sep-21 14:36 34.943087 -119.691046 15 2149ft 0kts
24-Sep-21 14:37 34.943087 -119.691046 15 2149ft 0kts
24-Sep-21 14:38 34.943087 -119.691046 15 2149ft 0kts
24-Sep-21 14:39 34.943087 -119.691046 15 2149ft 0kts
24-Sep-21 14:40 34.943087 -119.691046 15 2149ft 0kts

Navigation Log

Ident Type
Flight plan parsing failed, navigation log unavailable